sensor_id;sensor_type;location;lat;lon;timestamp;temperature;humidity
7384;DHT22;3733;47.994;8.820;2023-07-09T00:00:50;18.50;95.30
7384;DHT22;3733;47.994;8.820;2023-07-09T00:03:18;18.50;95.10
7384;DHT22;3733;47.994;8.820;2023-07-09T00:05:46;18.40;95.10
7384;DHT22;3733;47.994;8.820;2023-07-09T00:10:50;18.40;95.10
7384;DHT22;3733;47.994;8.820;2023-07-09T00:13:16;18.40;95.20
7384;DHT22;3733;47.994;8.820;2023-07-09T00:15:41;18.40;95.50
7384;DHT22;3733;47.994;8.820;2023-07-09T00:18:09;18.30;95.80
7384;DHT22;3733;47.994;8.820;2023-07-09T00:20:35;18.30;96.30
7384;DHT22;3733;47.994;8.820;2023-07-09T00:23:00;18.30;96.50
7384;DHT22;3733;47.994;8.820;2023-07-09T00:25:30;18.20;96.50
7384;DHT22;3733;47.994;8.820;2023-07-09T00:27:56;18.20;96.70
7384;DHT22;3733;47.994;8.820;2023-07-09T00:30:23;18.10;96.90
7384;DHT22;3733;47.994;8.820;2023-07-09T00:32:50;18.10;97.30
7384;DHT22;3733;47.994;8.820;2023-07-09T00:35:18;18.00;97.30
7384;DHT22;3733;47.994;8.820;2023-07-09T00:37:44;18.00;97.50
7384;DHT22;3733;47.994;8.820;2023-07-09T00:40:17;18.00;97.90
7384;DHT22;3733;47.994;8.820;2023-07-09T00:42:52;17.90;98.10
7384;DHT22;3733;47.994;8.820;2023-07-09T00:45:26;17.90;97.90
7384;DHT22;3733;47.994;8.820;2023-07-09T00:47:59;17.80;98.40
7384;DHT22;3733;47.994;8.820;2023-07-09T00:50:41;17.80;98.60
7384;DHT22;3733;47.994;8.820;2023-07-09T00:55:44;17.80;99.10
7384;DHT22;3733;47.994;8.820;2023-07-09T00:58:13;17.70;99.30
7384;DHT22;3733;47.994;8.820;2023-07-09T01:00:46;17.70;99.40
7384;DHT22;3733;47.994;8.820;2023-07-09T01:03:28;17.60;99.70
7384;DHT22;3733;47.994;8.820;2023-07-09T01:05:56;17.60;99.90
7384;DHT22;3733;47.994;8.820;2023-07-09T01:08:23;17.50;99.90
7384;DHT22;3733;47.994;8.820;2023-07-09T01:10:49;17.50;99.90
7384;DHT22;3733;47.994;8.820;2023-07-09T01:13:16;17.40;99.90
7384;DHT22;3733;47.994;8.820;2023-07-09T01:15:45;17.40;99.90
7384;DHT22;3733;47.994;8.820;2023-07-09T01:18:12;17.40;99.90
7384;DHT22;3733;47.994;8.820;2023-07-09T01:20:40;17.40;99.90
7384;DHT22;3733;47.994;8.820;2023-07-09T01:23:05;17.40;99.90
7384;DHT22;3733;47.994;8.820;2023-07-09T01:25:31;17.30;99.90
7384;DHT22;3733;47.994;8.820;2023-07-09T01:27:57;17.30;99.90
7384;DHT22;3733;47.994;8.820;2023-07-09T01:32:51;17.30;99.90
7384;DHT22;3733;47.994;8.820;2023-07-09T01:35:21;17.30;99.90
7384;DHT22;3733;47.994;8.820;2023-07-09T01:37:47;17.30;99.90
7384;DHT22;3733;47.994;8.820;2023-07-09T01:40:15;17.20;99.90
7384;DHT22;3733;47.994;8.820;2023-07-09T01:42:41;17.20;99.90
7384;DHT22;3733;47.994;8.820;2023-07-09T01:45:09;17.20;99.90
7384;DHT22;3733;47.994;8.820;2023-07-09T01:47:38;17.10;99.90
7384;DHT22;3733;47.994;8.820;2023-07-09T01:50:06;17.00;99.90
7384;DHT22;3733;47.994;8.820;2023-07-09T01:52:33;17.00;99.90
7384;DHT22;3733;47.994;8.820;2023-07-09T01:54:59;16.90;99.90
7384;DHT22;3733;47.994;8.820;2023-07-09T01:57:27;16.90;99.90
7384;DHT22;3733;47.994;8.820;2023-07-09T02:00:03;16.90;99.90
7384;DHT22;3733;47.994;8.820;2023-07-09T02:02:30;16.80;99.90
7384;DHT22;3733;47.994;8.820;2023-07-09T02:04:57;16.80;99.90
7384;DHT22;3733;47.994;8.820;2023-07-09T02:07:24;16.80;99.90
7384;DHT22;3733;47.994;8.820;2023-07-09T02:09:50;16.80;99.90
7384;DHT22;3733;47.994;8.820;2023-07-09T02:12:17;16.70;99.90
7384;DHT22;3733;47.994;8.820;2023-07-09T02:14:44;16.70;99.90
7384;DHT22;3733;47.994;8.820;2023-07-09T02:17:11;16.70;99.90
7384;DHT22;3733;47.994;8.820;2023-07-09T02:19:37;16.60;99.90
7384;DHT22;3733;47.994;8.820;2023-07-09T02:22:03;16.60;99.90
7384;DHT22;3733;47.994;8.820;2023-07-09T02:24:29;16.60;99.90
7384;DHT22;3733;47.994;8.820;2023-07-09T02:26:56;16.50;99.90
7384;DHT22;3733;47.994;8.820;2023-07-09T02:29:22;16.50;99.90
7384;DHT22;3733;47.994;8.820;2023-07-09T02:31:50;16.50;99.90
7384;DHT22;3733;47.994;8.820;2023-07-09T02:34:17;16.50;99.90
7384;DHT22;3733;47.994;8.820;2023-07-09T02:36:43;16.50;99.90
7384;DHT22;3733;47.994;8.820;2023-07-09T02:39:13;16.40;99.90
7384;DHT22;3733;47.994;8.820;2023-07-09T02:41:40;16.40;99.90
7384;DHT22;3733;47.994;8.820;2023-07-09T02:44:06;16.40;99.90
7384;DHT22;3733;47.994;8.820;2023-07-09T02:46:32;16.40;99.90
7384;DHT22;3733;47.994;8.820;2023-07-09T02:48:58;16.40;99.90
7384;DHT22;3733;47.994;8.820;2023-07-09T02:51:24;16.40;99.90
7384;DHT22;3733;47.994;8.820;2023-07-09T02:53:53;16.40;99.90
7384;DHT22;3733;47.994;8.820;2023-07-09T02:56:19;16.30;99.90
7384;DHT22;3733;47.994;8.820;2023-07-09T02:58:45;16.30;99.90
7384;DHT22;3733;47.994;8.820;2023-07-09T03:01:10;16.30;99.90
7384;DHT22;3733;47.994;8.820;2023-07-09T03:03:38;16.30;99.90
7384;DHT22;3733;47.994;8.820;2023-07-09T03:06:05;16.20;99.90
7384;DHT22;3733;47.994;8.820;2023-07-09T03:08:31;16.20;99.90
7384;DHT22;3733;47.994;8.820;2023-07-09T03:10:57;16.20;99.90
7384;DHT22;3733;47.994;8.820;2023-07-09T03:13:23;16.20;99.90
7384;DHT22;3733;47.994;8.820;2023-07-09T03:15:56;16.20;99.90
7384;DHT22;3733;47.994;8.820;2023-07-09T03:18:23;16.10;99.90
7384;DHT22;3733;47.994;8.820;2023-07-09T03:20:49;16.10;99.90
7384;DHT22;3733;47.994;8.820;2023-07-09T03:23:14;16.00;99.90
7384;DHT22;3733;47.994;8.820;2023-07-09T03:25:44;16.00;99.90
7384;DHT22;3733;47.994;8.820;2023-07-09T03:28:11;16.00;99.90
7384;DHT22;3733;47.994;8.820;2023-07-09T03:30:44;16.00;99.90
7384;DHT22;3733;47.994;8.820;2023-07-09T03:33:11;16.00;99.90
7384;DHT22;3733;47.994;8.820;2023-07-09T03:35:37;16.00;99.90
7384;DHT22;3733;47.994;8.820;2023-07-09T03:38:06;16.00;99.90
7384;DHT22;3733;47.994;8.820;2023-07-09T03:40:32;15.90;99.90
7384;DHT22;3733;47.994;8.820;2023-07-09T03:42:58;15.90;99.90
7384;DHT22;3733;47.994;8.820;2023-07-09T03:45:24;15.90;99.90
7384;DHT22;3733;47.994;8.820;2023-07-09T03:47:50;15.90;99.90
7384;DHT22;3733;47.994;8.820;2023-07-09T03:50:15;15.80;99.90
7384;DHT22;3733;47.994;8.820;2023-07-09T03:52:41;15.90;99.90
7384;DHT22;3733;47.994;8.820;2023-07-09T03:55:07;15.80;99.90
7384;DHT22;3733;47.994;8.820;2023-07-09T03:57:34;15.80;99.90
7384;DHT22;3733;47.994;8.820;2023-07-09T04:00:00;15.80;99.90
7384;DHT22;3733;47.994;8.820;2023-07-09T04:02:26;15.80;99.90
7384;DHT22;3733;47.994;8.820;2023-07-09T04:04:52;15.70;99.90
7384;DHT22;3733;47.994;8.820;2023-07-09T04:07:18;15.70;99.90
7384;DHT22;3733;47.994;8.820;2023-07-09T04:09:43;15.70;99.90
7384;DHT22;3733;47.994;8.820;2023-07-09T04:12:09;15.70;99.90
7384;DHT22;3733;47.994;8.820;2023-07-09T04:14:35;15.70;99.90
7384;DHT22;3733;47.994;8.820;2023-07-09T04:17:02;15.70;99.90
7384;DHT22;3733;47.994;8.820;2023-07-09T04:19:27;15.70;99.90
7384;DHT22;3733;47.994;8.820;2023-07-09T04:21:53;15.70;99.90
7384;DHT22;3733;47.994;8.820;2023-07-09T04:24:19;15.70;99.90
7384;DHT22;3733;47.994;8.820;2023-07-09T04:26:46;15.80;99.90
7384;DHT22;3733;47.994;8.820;2023-07-09T04:29:11;15.80;99.90
7384;DHT22;3733;47.994;8.820;2023-07-09T04:31:38;15.80;99.90
7384;DHT22;3733;47.994;8.820;2023-07-09T04:34:04;15.80;99.90
7384;DHT22;3733;47.994;8.820;2023-07-09T04:36:30;15.90;99.90
7384;DHT22;3733;47.994;8.820;2023-07-09T04:38:56;15.90;99.90
7384;DHT22;3733;47.994;8.820;2023-07-09T04:41:22;15.90;99.90
7384;DHT22;3733;47.994;8.820;2023-07-09T04:43:48;16.00;99.90
7384;DHT22;3733;47.994;8.820;2023-07-09T04:46:13;16.00;99.90
7384;DHT22;3733;47.994;8.820;2023-07-09T04:48:39;16.00;99.90
7384;DHT22;3733;47.994;8.820;2023-07-09T04:51:05;16.10;99.90
7384;DHT22;3733;47.994;8.820;2023-07-09T04:53:31;16.10;99.90
7384;DHT22;3733;47.994;8.820;2023-07-09T04:55:56;16.20;99.90
7384;DHT22;3733;47.994;8.820;2023-07-09T04:58:22;16.20;99.90
7384;DHT22;3733;47.994;8.820;2023-07-09T05:00:48;16.30;99.90
7384;DHT22;3733;47.994;8.820;2023-07-09T05:03:18;16.30;99.90
7384;DHT22;3733;47.994;8.820;2023-07-09T05:05:45;16.30;99.90
7384;DHT22;3733;47.994;8.820;2023-07-09T05:08:12;16.30;99.90
7384;DHT22;3733;47.994;8.820;2023-07-09T05:10:49;16.40;99.90
7384;DHT22;3733;47.994;8.820;2023-07-09T05:13:17;16.40;99.90
7384;DHT22;3733;47.994;8.820;2023-07-09T05:15:45;16.40;99.90
7384;DHT22;3733;47.994;8.820;2023-07-09T05:18:13;16.50;99.90
7384;DHT22;3733;47.994;8.820;2023-07-09T05:20:39;16.60;99.90
7384;DHT22;3733;47.994;8.820;2023-07-09T05:23:05;16.70;99.90
7384;DHT22;3733;47.994;8.820;2023-07-09T05:25:31;16.80;99.90
7384;DHT22;3733;47.994;8.820;2023-07-09T05:27:56;16.80;99.90
7384;DHT22;3733;47.994;8.820;2023-07-09T05:30:22;16.90;99.90
7384;DHT22;3733;47.994;8.820;2023-07-09T05:32:48;16.90;99.90
7384;DHT22;3733;47.994;8.820;2023-07-09T05:35:14;17.00;99.90
7384;DHT22;3733;47.994;8.820;2023-07-09T05:37:40;17.00;99.90
7384;DHT22;3733;47.994;8.820;2023-07-09T05:40:07;17.10;99.90
7384;DHT22;3733;47.994;8.820;2023-07-09T05:42:33;17.20;99.90
7384;DHT22;3733;47.994;8.820;2023-07-09T05:44:59;17.20;99.90
7384;DHT22;3733;47.994;8.820;2023-07-09T05:47:25;17.30;99.90
7384;DHT22;3733;47.994;8.820;2023-07-09T05:49:51;17.40;99.90
7384;DHT22;3733;47.994;8.820;2023-07-09T05:52:18;17.50;99.90
7384;DHT22;3733;47.994;8.820;2023-07-09T05:54:44;17.60;99.90
7384;DHT22;3733;47.994;8.820;2023-07-09T05:57:10;17.70;99.90
7384;DHT22;3733;47.994;8.820;2023-07-09T05:59:36;17.80;99.20
7384;DHT22;3733;47.994;8.820;2023-07-09T06:02:02;17.90;98.60
7384;DHT22;3733;47.994;8.820;2023-07-09T06:04:29;18.00;97.50
7384;DHT22;3733;47.994;8.820;2023-07-09T06:06:56;18.00;96.10
7384;DHT22;3733;47.994;8.820;2023-07-09T06:09:22;18.10;94.10
7384;DHT22;3733;47.994;8.820;2023-07-09T06:11:47;18.20;94.80
7384;DHT22;3733;47.994;8.820;2023-07-09T06:14:13;18.20;95.80
7384;DHT22;3733;47.994;8.820;2023-07-09T06:16:38;18.30;95.00
7384;DHT22;3733;47.994;8.820;2023-07-09T06:19:04;18.30;94.60
7384;DHT22;3733;47.994;8.820;2023-07-09T06:21:29;18.40;94.30
7384;DHT22;3733;47.994;8.820;2023-07-09T06:23:55;18.50;94.50
7384;DHT22;3733;47.994;8.820;2023-07-09T06:26:21;18.60;94.10
7384;DHT22;3733;47.994;8.820;2023-07-09T06:28:46;18.70;92.90
7384;DHT22;3733;47.994;8.820;2023-07-09T06:31:12;18.80;91.30
7384;DHT22;3733;47.994;8.820;2023-07-09T06:33:38;18.90;91.10
7384;DHT22;3733;47.994;8.820;2023-07-09T06:36:04;19.00;90.50
7384;DHT22;3733;47.994;8.820;2023-07-09T06:38:30;19.10;89.30
7384;DHT22;3733;47.994;8.820;2023-07-09T06:40:57;19.20;88.00
7384;DHT22;3733;47.994;8.820;2023-07-09T06:43:23;19.30;86.70
7384;DHT22;3733;47.994;8.820;2023-07-09T06:45:50;19.50;85.40
7384;DHT22;3733;47.994;8.820;2023-07-09T06:48:16;19.60;86.10
7384;DHT22;3733;47.994;8.820;2023-07-09T06:50:42;19.70;85.50
7384;DHT22;3733;47.994;8.820;2023-07-09T06:53:07;19.90;83.90
7384;DHT22;3733;47.994;8.820;2023-07-09T06:55:33;20.10;82.00
7384;DHT22;3733;47.994;8.820;2023-07-09T06:57:59;20.30;81.60
7384;DHT22;3733;47.994;8.820;2023-07-09T07:00:24;20.40;78.80
7384;DHT22;3733;47.994;8.820;2023-07-09T07:02:50;20.60;78.00
7384;DHT22;3733;47.994;8.820;2023-07-09T07:05:16;20.70;77.30
7384;DHT22;3733;47.994;8.820;2023-07-09T07:07:43;20.80;75.80
7384;DHT22;3733;47.994;8.820;2023-07-09T07:10:10;20.90;74.30
7384;DHT22;3733;47.994;8.820;2023-07-09T07:12:44;21.00;74.80
7384;DHT22;3733;47.994;8.820;2023-07-09T07:15:11;21.20;74.50
7384;DHT22;3733;47.994;8.820;2023-07-09T07:17:37;21.30;73.10
7384;DHT22;3733;47.994;8.820;2023-07-09T07:20:03;21.30;71.90
7384;DHT22;3733;47.994;8.820;2023-07-09T07:22:29;21.40;71.60
7384;DHT22;3733;47.994;8.820;2023-07-09T07:24:54;21.50;71.90
7384;DHT22;3733;47.994;8.820;2023-07-09T07:27:20;21.70;71.80
7384;DHT22;3733;47.994;8.820;2023-07-09T07:29:46;21.80;70.70
7384;DHT22;3733;47.994;8.820;2023-07-09T07:32:11;21.90;70.20
7384;DHT22;3733;47.994;8.820;2023-07-09T07:34:37;22.00;69.90
7384;DHT22;3733;47.994;8.820;2023-07-09T07:37:03;22.10;69.90
7384;DHT22;3733;47.994;8.820;2023-07-09T07:39:28;22.30;70.30
7384;DHT22;3733;47.994;8.820;2023-07-09T07:41:54;22.40;70.10
7384;DHT22;3733;47.994;8.820;2023-07-09T07:44:21;22.60;69.40
7384;DHT22;3733;47.994;8.820;2023-07-09T07:46:47;22.70;67.60
7384;DHT22;3733;47.994;8.820;2023-07-09T07:49:13;22.80;67.50
7384;DHT22;3733;47.994;8.820;2023-07-09T07:51:38;23.00;66.60
7384;DHT22;3733;47.994;8.820;2023-07-09T07:54:04;23.10;65.00
7384;DHT22;3733;47.994;8.820;2023-07-09T07:56:31;23.20;65.00
7384;DHT22;3733;47.994;8.820;2023-07-09T07:58:56;23.40;64.90
7384;DHT22;3733;47.994;8.820;2023-07-09T08:01:22;23.50;64.40
7384;DHT22;3733;47.994;8.820;2023-07-09T08:03:47;23.60;62.60
7384;DHT22;3733;47.994;8.820;2023-07-09T08:06:13;23.70;61.90
7384;DHT22;3733;47.994;8.820;2023-07-09T08:08:38;23.80;61.60
7384;DHT22;3733;47.994;8.820;2023-07-09T08:11:06;24.00;61.00
7384;DHT22;3733;47.994;8.820;2023-07-09T08:13:37;24.10;60.70
7384;DHT22;3733;47.994;8.820;2023-07-09T08:16:05;24.20;60.00
7384;DHT22;3733;47.994;8.820;2023-07-09T08:18:31;24.30;58.90
7384;DHT22;3733;47.994;8.820;2023-07-09T08:20:57;24.40;58.80
7384;DHT22;3733;47.994;8.820;2023-07-09T08:23:23;24.60;58.70
7384;DHT22;3733;47.994;8.820;2023-07-09T08:25:59;24.80;58.80
7384;DHT22;3733;47.994;8.820;2023-07-09T08:28:25;24.90;57.80
7384;DHT22;3733;47.994;8.820;2023-07-09T08:30:54;25.00;57.50
7384;DHT22;3733;47.994;8.820;2023-07-09T08:33:20;25.20;57.80
7384;DHT22;3733;47.994;8.820;2023-07-09T08:35:48;25.40;57.90
7384;DHT22;3733;47.994;8.820;2023-07-09T08:38:14;25.60;57.10
7384;DHT22;3733;47.994;8.820;2023-07-09T08:40:40;25.70;56.40
7384;DHT22;3733;47.994;8.820;2023-07-09T08:48:44;26.00;55.20
7384;DHT22;3733;47.994;8.820;2023-07-09T08:51:34;26.10;55.20
7384;DHT22;3733;47.994;8.820;2023-07-09T08:54:00;26.20;54.20
7384;DHT22;3733;47.994;8.820;2023-07-09T08:56:29;26.30;53.20
7384;DHT22;3733;47.994;8.820;2023-07-09T08:58:59;26.50;52.00
7384;DHT22;3733;47.994;8.820;2023-07-09T09:01:30;26.70;51.60
7384;DHT22;3733;47.994;8.820;2023-07-09T09:04:15;26.80;51.30
7384;DHT22;3733;47.994;8.820;2023-07-09T09:06:47;26.90;51.30
7384;DHT22;3733;47.994;8.820;2023-07-09T09:14:41;27.20;49.90
7384;DHT22;3733;47.994;8.820;2023-07-09T09:17:19;27.30;49.60
7384;DHT22;3733;47.994;8.820;2023-07-09T09:19:54;27.50;48.20
7384;DHT22;3733;47.994;8.820;2023-07-09T09:23:29;27.60;47.40
7384;DHT22;3733;47.994;8.820;2023-07-09T09:25:28;27.70;47.90
7384;DHT22;3733;47.994;8.820;2023-07-09T09:27:54;27.80;46.10
7384;DHT22;3733;47.994;8.820;2023-07-09T09:30:23;27.80;47.10
7384;DHT22;3733;47.994;8.820;2023-07-09T09:32:54;27.90;47.50
7384;DHT22;3733;47.994;8.820;2023-07-09T09:35:28;28.00;48.60
7384;DHT22;3733;47.994;8.820;2023-07-09T09:37:56;28.20;48.00
7384;DHT22;3733;47.994;8.820;2023-07-09T09:40:24;28.40;47.60
7384;DHT22;3733;47.994;8.820;2023-07-09T09:42:51;28.50;47.50
7384;DHT22;3733;47.994;8.820;2023-07-09T09:45:21;28.60;48.10
7384;DHT22;3733;47.994;8.820;2023-07-09T09:47:48;28.70;47.10
7384;DHT22;3733;47.994;8.820;2023-07-09T09:50:19;28.80;46.80
7384;DHT22;3733;47.994;8.820;2023-07-09T09:52:45;28.90;46.30
7384;DHT22;3733;47.994;8.820;2023-07-09T09:55:18;29.00;44.30
7384;DHT22;3733;47.994;8.820;2023-07-09T09:57:49;29.00;44.50
7384;DHT22;3733;47.994;8.820;2023-07-09T10:00:16;29.00;45.30
7384;DHT22;3733;47.994;8.820;2023-07-09T10:02:42;29.10;45.40
7384;DHT22;3733;47.994;8.820;2023-07-09T10:05:21;29.30;45.70
7384;DHT22;3733;47.994;8.820;2023-07-09T10:08:10;29.40;45.20
7384;DHT22;3733;47.994;8.820;2023-07-09T10:10:40;29.50;44.10
7384;DHT22;3733;47.994;8.820;2023-07-09T10:13:23;29.70;44.30
7384;DHT22;3733;47.994;8.820;2023-07-09T10:16:18;29.80;44.70
7384;DHT22;3733;47.994;8.820;2023-07-09T10:19:16;30.00;42.80
7384;DHT22;3733;47.994;8.820;2023-07-09T10:21:58;30.10;42.70
7384;DHT22;3733;47.994;8.820;2023-07-09T10:24:44;30.10;42.50
7384;DHT22;3733;47.994;8.820;2023-07-09T10:27:39;30.20;43.90
7384;DHT22;3733;47.994;8.820;2023-07-09T10:40:41;30.70;41.80
7384;DHT22;3733;47.994;8.820;2023-07-09T10:43:15;30.80;41.40
7384;DHT22;3733;47.994;8.820;2023-07-09T10:45:53;30.90;40.80
7384;DHT22;3733;47.994;8.820;2023-07-09T10:48:41;31.10;41.80
7384;DHT22;3733;47.994;8.820;2023-07-09T10:51:41;31.10;41.10
7384;DHT22;3733;47.994;8.820;2023-07-09T10:56:40;31.50;40.90
7384;DHT22;3733;47.994;8.820;2023-07-09T10:59:28;31.60;40.90
7384;DHT22;3733;47.994;8.820;2023-07-09T11:01:58;31.70;39.80
7384;DHT22;3733;47.994;8.820;2023-07-09T11:06:53;31.70;38.90
7384;DHT22;3733;47.994;8.820;2023-07-09T11:09:33;31.70;38.40
7384;DHT22;3733;47.994;8.820;2023-07-09T11:12:24;31.60;38.80
7384;DHT22;3733;47.994;8.820;2023-07-09T11:14:56;31.70;39.20
7384;DHT22;3733;47.994;8.820;2023-07-09T11:17:27;31.80;40.10
7384;DHT22;3733;47.994;8.820;2023-07-09T11:19:59;31.90;39.00
7384;DHT22;3733;47.994;8.820;2023-07-09T11:22:40;32.10;38.00
7384;DHT22;3733;47.994;8.820;2023-07-09T11:27:32;32.40;38.20
7384;DHT22;3733;47.994;8.820;2023-07-09T11:30:15;32.40;37.60
7384;DHT22;3733;47.994;8.820;2023-07-09T11:32:47;32.50;37.80
7384;DHT22;3733;47.994;8.820;2023-07-09T11:35:21;32.60;37.50
7384;DHT22;3733;47.994;8.820;2023-07-09T11:37:47;32.70;37.00
7384;DHT22;3733;47.994;8.820;2023-07-09T11:40:14;32.70;37.00
7384;DHT22;3733;47.994;8.820;2023-07-09T11:42:57;32.80;36.30
7384;DHT22;3733;47.994;8.820;2023-07-09T11:45:33;32.90;36.10
7384;DHT22;3733;47.994;8.820;2023-07-09T11:48:15;33.00;35.30
7384;DHT22;3733;47.994;8.820;2023-07-09T11:50:50;33.00;34.30
7384;DHT22;3733;47.994;8.820;2023-07-09T11:53:53;32.90;35.30
7384;DHT22;3733;47.994;8.820;2023-07-09T11:56:20;32.70;34.20
7384;DHT22;3733;47.994;8.820;2023-07-09T11:58:57;32.50;34.80
7384;DHT22;3733;47.994;8.820;2023-07-09T12:01:34;32.40;35.80
7384;DHT22;3733;47.994;8.820;2023-07-09T12:04:03;32.50;35.20
7384;DHT22;3733;47.994;8.820;2023-07-09T12:06:32;32.60;35.00
7384;DHT22;3733;47.994;8.820;2023-07-09T12:08:58;32.60;35.10
7384;DHT22;3733;47.994;8.820;2023-07-09T12:11:30;32.70;36.50
7384;DHT22;3733;47.994;8.820;2023-07-09T12:14:03;32.70;35.90
7384;DHT22;3733;47.994;8.820;2023-07-09T12:16:34;32.60;35.00
7384;DHT22;3733;47.994;8.820;2023-07-09T12:19:00;32.60;35.10
7384;DHT22;3733;47.994;8.820;2023-07-09T12:21:26;32.70;35.60
7384;DHT22;3733;47.994;8.820;2023-07-09T12:23:54;33.00;35.70
7384;DHT22;3733;47.994;8.820;2023-07-09T12:26:21;33.30;35.50
7384;DHT22;3733;47.994;8.820;2023-07-09T12:28:54;33.50;34.40
7384;DHT22;3733;47.994;8.820;2023-07-09T12:31:27;33.70;33.40
7384;DHT22;3733;47.994;8.820;2023-07-09T12:33:54;33.90;33.50
7384;DHT22;3733;47.994;8.820;2023-07-09T12:36:20;34.10;34.20
7384;DHT22;3733;47.994;8.820;2023-07-09T12:38:49;34.20;33.00
7384;DHT22;3733;47.994;8.820;2023-07-09T12:41:41;34.50;31.40
7384;DHT22;3733;47.994;8.820;2023-07-09T12:44:26;34.60;31.10
7384;DHT22;3733;47.994;8.820;2023-07-09T12:46:53;34.70;30.40
7384;DHT22;3733;47.994;8.820;2023-07-09T12:49:31;34.70;30.10
7384;DHT22;3733;47.994;8.820;2023-07-09T12:52:07;34.80;30.70
7384;DHT22;3733;47.994;8.820;2023-07-09T12:54:34;34.80;29.80
7384;DHT22;3733;47.994;8.820;2023-07-09T12:57:00;34.80;30.00
7384;DHT22;3733;47.994;8.820;2023-07-09T12:59:39;34.80;30.60
7384;DHT22;3733;47.994;8.820;2023-07-09T13:04:36;34.90;30.00
7384;DHT22;3733;47.994;8.820;2023-07-09T13:07:02;34.90;29.80
7384;DHT22;3733;47.994;8.820;2023-07-09T13:09:29;34.90;28.20
7384;DHT22;3733;47.994;8.820;2023-07-09T13:11:55;34.90;28.70
7384;DHT22;3733;47.994;8.820;2023-07-09T13:14:26;34.90;29.40
7384;DHT22;3733;47.994;8.820;2023-07-09T13:16:53;35.00;29.40
7384;DHT22;3733;47.994;8.820;2023-07-09T13:19:26;35.10;30.00
7384;DHT22;3733;47.994;8.820;2023-07-09T13:21:52;35.10;29.10
7384;DHT22;3733;47.994;8.820;2023-07-09T13:24:27;35.10;29.50
7384;DHT22;3733;47.994;8.820;2023-07-09T13:26:53;35.20;29.60
7384;DHT22;3733;47.994;8.820;2023-07-09T13:29:20;35.30;29.10
7384;DHT22;3733;47.994;8.820;2023-07-09T13:31:46;35.40;29.50
7384;DHT22;3733;47.994;8.820;2023-07-09T13:34:22;35.40;29.80
7384;DHT22;3733;47.994;8.820;2023-07-09T13:36:48;35.60;29.50
7384;DHT22;3733;47.994;8.820;2023-07-09T13:39:15;35.60;29.70
7384;DHT22;3733;47.994;8.820;2023-07-09T13:41:43;35.70;29.30
7384;DHT22;3733;47.994;8.820;2023-07-09T13:44:18;35.70;28.10
7384;DHT22;3733;47.994;8.820;2023-07-09T13:46:44;35.80;28.80
7384;DHT22;3733;47.994;8.820;2023-07-09T13:49:16;35.90;28.50
7384;DHT22;3733;47.994;8.820;2023-07-09T13:51:44;36.10;28.90
7384;DHT22;3733;47.994;8.820;2023-07-09T13:54:20;36.30;29.10
7384;DHT22;3733;47.994;8.820;2023-07-09T13:56:46;36.40;29.20
7384;DHT22;3733;47.994;8.820;2023-07-09T13:59:21;36.50;29.30
7384;DHT22;3733;47.994;8.820;2023-07-09T14:01:50;36.60;28.50
7384;DHT22;3733;47.994;8.820;2023-07-09T14:04:17;36.50;27.70
7384;DHT22;3733;47.994;8.820;2023-07-09T14:06:43;36.50;28.60
7384;DHT22;3733;47.994;8.820;2023-07-09T14:09:10;36.50;27.70
7384;DHT22;3733;47.994;8.820;2023-07-09T14:11:47;36.50;28.00
7384;DHT22;3733;47.994;8.820;2023-07-09T14:14:27;36.50;28.00
7384;DHT22;3733;47.994;8.820;2023-07-09T14:16:56;36.50;28.00
7384;DHT22;3733;47.994;8.820;2023-07-09T14:19:23;36.50;28.30
7384;DHT22;3733;47.994;8.820;2023-07-09T14:21:50;36.50;28.90
7384;DHT22;3733;47.994;8.820;2023-07-09T14:26:42;36.50;28.70
7384;DHT22;3733;47.994;8.820;2023-07-09T14:29:07;36.50;28.70
7384;DHT22;3733;47.994;8.820;2023-07-09T14:31:33;36.60;28.90
7384;DHT22;3733;47.994;8.820;2023-07-09T14:34:18;36.60;29.40
7384;DHT22;3733;47.994;8.820;2023-07-09T14:36:45;36.70;29.60
7384;DHT22;3733;47.994;8.820;2023-07-09T14:39:11;36.70;29.40
7384;DHT22;3733;47.994;8.820;2023-07-09T14:41:37;36.70;28.50
7384;DHT22;3733;47.994;8.820;2023-07-09T14:44:05;36.70;28.90
7384;DHT22;3733;47.994;8.820;2023-07-09T14:46:40;36.70;29.40
7384;DHT22;3733;47.994;8.820;2023-07-09T14:49:07;36.70;28.60
7384;DHT22;3733;47.994;8.820;2023-07-09T14:51:33;36.70;29.20
7384;DHT22;3733;47.994;8.820;2023-07-09T14:53:59;36.80;29.50
7384;DHT22;3733;47.994;8.820;2023-07-09T14:56:25;36.90;28.60
7384;DHT22;3733;47.994;8.820;2023-07-09T14:58:52;37.00;28.60
7384;DHT22;3733;47.994;8.820;2023-07-09T15:01:18;37.00;28.30
7384;DHT22;3733;47.994;8.820;2023-07-09T15:03:45;37.10;28.40
7384;DHT22;3733;47.994;8.820;2023-07-09T15:06:11;37.10;28.10
7384;DHT22;3733;47.994;8.820;2023-07-09T15:08:37;37.00;28.10
7384;DHT22;3733;47.994;8.820;2023-07-09T15:11:03;36.80;28.00
7384;DHT22;3733;47.994;8.820;2023-07-09T15:13:31;36.60;28.40
7384;DHT22;3733;47.994;8.820;2023-07-09T15:15:58;36.50;28.60
7384;DHT22;3733;47.994;8.820;2023-07-09T15:18:24;36.20;29.10
7384;DHT22;3733;47.994;8.820;2023-07-09T15:20:53;35.60;29.30
7384;DHT22;3733;47.994;8.820;2023-07-09T15:23:20;35.30;29.40
7384;DHT22;3733;47.994;8.820;2023-07-09T15:25:48;35.30;29.40
7384;DHT22;3733;47.994;8.820;2023-07-09T15:28:14;35.40;29.10
7384;DHT22;3733;47.994;8.820;2023-07-09T15:30:39;35.60;29.40
7384;DHT22;3733;47.994;8.820;2023-07-09T15:33:18;35.90;28.80
7384;DHT22;3733;47.994;8.820;2023-07-09T15:35:46;36.10;28.30
7384;DHT22;3733;47.994;8.820;2023-07-09T15:38:30;36.30;27.90
7384;DHT22;3733;47.994;8.820;2023-07-09T15:40:57;36.40;28.00
7384;DHT22;3733;47.994;8.820;2023-07-09T15:43:24;36.70;28.40
7384;DHT22;3733;47.994;8.820;2023-07-09T15:45:51;36.90;27.70
7384;DHT22;3733;47.994;8.820;2023-07-09T15:48:33;37.00;27.10
7384;DHT22;3733;47.994;8.820;2023-07-09T15:51:03;36.70;27.10
7384;DHT22;3733;47.994;8.820;2023-07-09T15:53:30;36.40;27.60
7384;DHT22;3733;47.994;8.820;2023-07-09T15:56:01;36.30;27.70
7384;DHT22;3733;47.994;8.820;2023-07-09T15:58:38;36.30;28.10
7384;DHT22;3733;47.994;8.820;2023-07-09T16:01:05;36.30;28.00
7384;DHT22;3733;47.994;8.820;2023-07-09T16:03:32;36.30;27.90
7384;DHT22;3733;47.994;8.820;2023-07-09T16:05:58;36.40;28.00
7384;DHT22;3733;47.994;8.820;2023-07-09T16:08:23;36.30;27.90
7384;DHT22;3733;47.994;8.820;2023-07-09T16:10:49;36.10;28.50
7384;DHT22;3733;47.994;8.820;2023-07-09T16:13:21;35.90;29.00
7384;DHT22;3733;47.994;8.820;2023-07-09T16:15:48;35.60;29.40
7384;DHT22;3733;47.994;8.820;2023-07-09T16:18:14;35.20;29.70
7384;DHT22;3733;47.994;8.820;2023-07-09T16:20:41;34.70;30.00
7384;DHT22;3733;47.994;8.820;2023-07-09T16:23:18;34.30;30.10
7384;DHT22;3733;47.994;8.820;2023-07-09T16:25:44;33.90;29.30
7384;DHT22;3733;47.994;8.820;2023-07-09T16:28:18;33.50;29.40
7384;DHT22;3733;47.994;8.820;2023-07-09T16:30:45;33.20;29.20
7384;DHT22;3733;47.994;8.820;2023-07-09T16:33:12;32.90;29.50
7384;DHT22;3733;47.994;8.820;2023-07-09T16:35:39;32.70;29.60
7384;DHT22;3733;47.994;8.820;2023-07-09T16:38:04;32.60;29.80
7384;DHT22;3733;47.994;8.820;2023-07-09T16:40:31;32.40;30.00
7384;DHT22;3733;47.994;8.820;2023-07-09T16:42:59;32.40;30.00
7384;DHT22;3733;47.994;8.820;2023-07-09T16:45:28;32.30;31.80
7384;DHT22;3733;47.994;8.820;2023-07-09T16:47:54;32.20;32.60
7384;DHT22;3733;47.994;8.820;2023-07-09T16:50:24;32.20;32.40
7384;DHT22;3733;47.994;8.820;2023-07-09T16:52:51;32.10;32.10
7384;DHT22;3733;47.994;8.820;2023-07-09T16:55:26;32.00;33.20